createdAt,value
2017-07-09T00:06:59.000Z,25.68
2017-07-09T00:16:59.000Z,25.6
2017-07-09T00:26:59.000Z,25.61
2017-07-09T00:36:59.000Z,25.59
2017-07-09T00:46:59.000Z,25.55
2017-07-09T00:56:59.000Z,25.52
2017-07-09T01:06:59.000Z,25.42
2017-07-09T01:16:59.000Z,25.4
2017-07-09T01:26:59.000Z,25.36
2017-07-09T01:36:59.000Z,25.33
2017-07-09T01:46:59.000Z,25.3
2017-07-09T01:56:59.000Z,25.27
2017-07-09T02:06:59.000Z,25.25
2017-07-09T02:16:59.000Z,25.19
2017-07-09T02:26:59.000Z,25.17
2017-07-09T02:36:59.000Z,25.15
2017-07-09T02:46:59.000Z,25.1
2017-07-09T02:56:59.000Z,25.09
2017-07-09T03:06:59.000Z,25.04
2017-07-09T03:16:59.000Z,25
2017-07-09T03:26:59.000Z,24.99
2017-07-09T03:36:59.000Z,24.97
2017-07-09T03:46:59.000Z,24.96
2017-07-09T03:56:59.000Z,24.93
2017-07-09T04:06:59.000Z,24.91
2017-07-09T04:16:59.000Z,24.89
2017-07-09T04:26:59.000Z,24.87
2017-07-09T04:36:59.000Z,24.85
2017-07-09T04:46:59.000Z,24.84
2017-07-09T04:56:59.000Z,24.82
2017-07-09T05:06:59.000Z,24.79
2017-07-09T05:16:59.000Z,24.81
2017-07-09T05:26:59.000Z,24.77
2017-07-09T05:36:59.000Z,24.73
2017-07-09T05:46:59.000Z,24.74
2017-07-09T05:56:59.000Z,24.78
2017-07-09T06:07:00.000Z,24.77
2017-07-09T06:17:00.000Z,24.82
2017-07-09T06:27:00.000Z,24.82
2017-07-09T06:37:00.000Z,24.77
2017-07-09T06:47:00.000Z,24.79
2017-07-09T06:57:00.000Z,24.82
2017-07-09T07:17:00.000Z,24.9
2017-07-09T07:27:00.000Z,24.96
2017-07-09T07:37:00.000Z,25.05
2017-07-09T07:47:00.000Z,25.11
2017-07-09T07:57:00.000Z,25.17
2017-07-09T08:07:00.000Z,25.19
2017-07-09T08:17:00.000Z,25.22
2017-07-09T08:27:00.000Z,25.21
2017-07-09T08:37:00.000Z,25.18
2017-07-09T08:47:00.000Z,25.21
2017-07-09T08:57:00.000Z,25.32
2017-07-09T09:07:00.000Z,25.45
2017-07-09T09:17:00.000Z,25.42
2017-07-09T09:27:00.000Z,25.59
2017-07-09T09:37:00.000Z,25.76
2017-07-09T09:47:00.000Z,25.78
2017-07-09T09:57:00.000Z,25.95
2017-07-09T10:07:00.000Z,25.94
2017-07-09T10:17:00.000Z,25.95
2017-07-09T10:27:00.000Z,25.94
2017-07-09T10:37:00.000Z,25.85
2017-07-09T10:47:00.000Z,25.98
2017-07-09T10:57:00.000Z,26.07
2017-07-09T11:07:00.000Z,26.07
2017-07-09T11:17:00.000Z,26.2
2017-07-09T11:27:00.000Z,26.29
2017-07-09T11:37:00.000Z,26.51
2017-07-09T11:47:00.000Z,26.3
2017-07-09T11:57:00.000Z,26.47
2017-07-09T12:07:00.000Z,26.58
2017-07-09T12:17:00.000Z,26.45
2017-07-09T12:27:02.000Z,26.62
2017-07-09T12:47:00.000Z,26.93
2017-07-09T12:57:00.000Z,27
2017-07-09T13:07:00.000Z,26.93
2017-07-09T13:17:00.000Z,27.03
2017-07-09T13:27:00.000Z,27.06
2017-07-09T13:37:00.000Z,27.21
2017-07-09T13:47:00.000Z,27.14
2017-07-09T13:57:00.000Z,27.19
2017-07-09T14:07:00.000Z,27.16
2017-07-09T14:17:00.000Z,27.25
2017-07-09T14:27:01.000Z,27.33
2017-07-09T14:37:01.000Z,27.07
2017-07-09T14:47:01.000Z,27
2017-07-09T14:57:02.000Z,26.8
2017-07-09T15:07:01.000Z,26.88
2017-07-09T15:17:01.000Z,26.72
2017-07-09T15:27:01.000Z,26.56
2017-07-09T15:37:01.000Z,26.48
2017-07-09T15:47:01.000Z,26.66
2017-07-09T15:57:01.000Z,26.57
2017-07-09T16:07:01.000Z,26.56
2017-07-09T16:17:01.000Z,26.64
2017-07-09T16:27:01.000Z,26.67
2017-07-09T16:37:04.000Z,26.61
2017-07-09T16:47:01.000Z,26.6
2017-07-09T16:57:01.000Z,26.62
2017-07-09T17:07:05.000Z,26.47
2017-07-09T17:27:01.000Z,26.41
2017-07-09T17:37:01.000Z,26.49
2017-07-09T17:57:01.000Z,26.18
2017-07-09T18:07:01.000Z,26.29
2017-07-09T18:17:01.000Z,26.25
2017-07-09T18:27:01.000Z,26.06
2017-07-09T18:37:01.000Z,26
2017-07-09T18:47:01.000Z,25.98
2017-07-09T18:57:01.000Z,25.98
2017-07-09T19:07:01.000Z,25.99
2017-07-09T19:17:01.000Z,25.9
2017-07-09T19:27:01.000Z,25.83
2017-07-09T19:37:01.000Z,25.88
2017-07-09T19:47:01.000Z,26.06
2017-07-09T19:57:01.000Z,26.08
2017-07-09T20:07:01.000Z,26.16
2017-07-09T20:17:02.000Z,26.15
2017-07-09T20:27:01.000Z,26.04
2017-07-09T20:37:01.000Z,25.98
2017-07-09T20:47:01.000Z,26.02
2017-07-09T21:07:01.000Z,26.01
2017-07-09T21:17:01.000Z,26.03
2017-07-09T21:27:01.000Z,26
2017-07-09T21:37:01.000Z,25.98
2017-07-09T21:47:05.000Z,25.98
2017-07-09T21:57:01.000Z,25.94
2017-07-09T22:07:01.000Z,25.93
2017-07-09T22:17:01.000Z,25.91
2017-07-09T22:27:01.000Z,25.88
2017-07-09T22:37:02.000Z,25.89
2017-07-09T22:47:02.000Z,25.87
2017-07-09T22:57:02.000Z,25.84
2017-07-09T23:07:03.000Z,25.82
2017-07-09T23:17:03.000Z,25.79
2017-07-09T23:37:02.000Z,25.79
2017-07-09T23:47:02.000Z,25.73
2017-07-09T23:57:02.000Z,25.69
